sensor_id;sensor_type;location;lat;lon;timestamp;temperature;humidity
15199;DHT22;7700;48.654;9.070;2024-03-06T00:01:35;5.30;99.90
15199;DHT22;7700;48.654;9.070;2024-03-06T00:04:02;5.40;99.90
15199;DHT22;7700;48.654;9.070;2024-03-06T00:06:29;5.40;99.90
15199;DHT22;7700;48.654;9.070;2024-03-06T00:08:55;5.40;99.90
15199;DHT22;7700;48.654;9.070;2024-03-06T00:11:21;5.40;99.90
15199;DHT22;7700;48.654;9.070;2024-03-06T00:13:46;5.40;99.90
15199;DHT22;7700;48.654;9.070;2024-03-06T00:16:13;5.50;99.90
15199;DHT22;7700;48.654;9.070;2024-03-06T00:18:39;5.50;99.90
15199;DHT22;7700;48.654;9.070;2024-03-06T00:21:05;5.40;99.90
15199;DHT22;7700;48.654;9.070;2024-03-06T00:23:32;5.40;99.90
15199;DHT22;7700;48.654;9.070;2024-03-06T00:25:57;5.40;99.90
15199;DHT22;7700;48.654;9.070;2024-03-06T00:28:23;5.40;99.90
15199;DHT22;7700;48.654;9.070;2024-03-06T00:30:49;5.40;99.90
15199;DHT22;7700;48.654;9.070;2024-03-06T00:33:15;5.40;99.90
15199;DHT22;7700;48.654;9.070;2024-03-06T00:35:40;5.30;99.90
15199;DHT22;7700;48.654;9.070;2024-03-06T00:38:06;5.30;99.90
15199;DHT22;7700;48.654;9.070;2024-03-06T00:40:31;5.30;99.90
15199;DHT22;7700;48.654;9.070;2024-03-06T00:42:58;5.30;99.90
15199;DHT22;7700;48.654;9.070;2024-03-06T00:45:24;5.20;99.90
15199;DHT22;7700;48.654;9.070;2024-03-06T00:47:49;5.20;99.90
15199;DHT22;7700;48.654;9.070;2024-03-06T00:50:15;5.20;99.90
15199;DHT22;7700;48.654;9.070;2024-03-06T00:52:42;5.20;99.90
15199;DHT22;7700;48.654;9.070;2024-03-06T00:55:09;5.20;99.90
15199;DHT22;7700;48.654;9.070;2024-03-06T00:57:35;5.20;99.90
15199;DHT22;7700;48.654;9.070;2024-03-06T01:00:02;5.20;99.90
15199;DHT22;7700;48.654;9.070;2024-03-06T01:02:31;5.20;99.90
15199;DHT22;7700;48.654;9.070;2024-03-06T01:04:56;5.20;99.90
15199;DHT22;7700;48.654;9.070;2024-03-06T01:07:22;5.20;99.90
15199;DHT22;7700;48.654;9.070;2024-03-06T01:09:47;5.20;99.90
15199;DHT22;7700;48.654;9.070;2024-03-06T01:12:13;5.10;99.90
15199;DHT22;7700;48.654;9.070;2024-03-06T01:14:38;5.10;99.90
15199;DHT22;7700;48.654;9.070;2024-03-06T01:17:04;5.20;99.90
15199;DHT22;7700;48.654;9.070;2024-03-06T01:19:30;5.20;99.90
15199;DHT22;7700;48.654;9.070;2024-03-06T01:21:56;5.20;99.90
15199;DHT22;7700;48.654;9.070;2024-03-06T01:24:21;5.10;99.90
15199;DHT22;7700;48.654;9.070;2024-03-06T01:26:47;5.10;99.90
15199;DHT22;7700;48.654;9.070;2024-03-06T01:29:12;5.10;99.90
15199;DHT22;7700;48.654;9.070;2024-03-06T01:31:38;5.10;99.90
15199;DHT22;7700;48.654;9.070;2024-03-06T01:34:03;5.10;99.90
15199;DHT22;7700;48.654;9.070;2024-03-06T01:36:29;5.10;99.90
15199;DHT22;7700;48.654;9.070;2024-03-06T01:38:55;5.00;99.90
15199;DHT22;7700;48.654;9.070;2024-03-06T01:41:20;5.00;99.90
15199;DHT22;7700;48.654;9.070;2024-03-06T01:43:46;5.00;99.90
15199;DHT22;7700;48.654;9.070;2024-03-06T01:46:12;5.00;99.90
15199;DHT22;7700;48.654;9.070;2024-03-06T01:48:38;4.90;99.90
15199;DHT22;7700;48.654;9.070;2024-03-06T01:51:04;4.90;99.90
15199;DHT22;7700;48.654;9.070;2024-03-06T01:53:31;4.80;99.90
15199;DHT22;7700;48.654;9.070;2024-03-06T01:55:57;4.70;99.90
15199;DHT22;7700;48.654;9.070;2024-03-06T01:58:23;4.70;99.90
15199;DHT22;7700;48.654;9.070;2024-03-06T02:00:50;4.70;99.90
15199;DHT22;7700;48.654;9.070;2024-03-06T02:03:17;4.70;99.90
15199;DHT22;7700;48.654;9.070;2024-03-06T02:05:44;4.70;99.90
15199;DHT22;7700;48.654;9.070;2024-03-06T02:08:10;4.80;99.90
15199;DHT22;7700;48.654;9.070;2024-03-06T02:10:35;4.80;99.90
15199;DHT22;7700;48.654;9.070;2024-03-06T02:13:01;4.80;99.90
15199;DHT22;7700;48.654;9.070;2024-03-06T02:15:27;4.80;99.90
15199;DHT22;7700;48.654;9.070;2024-03-06T02:17:52;4.80;99.90
15199;DHT22;7700;48.654;9.070;2024-03-06T02:20:23;4.80;99.90
15199;DHT22;7700;48.654;9.070;2024-03-06T02:22:50;4.80;99.90
15199;DHT22;7700;48.654;9.070;2024-03-06T02:25:16;4.70;99.90
15199;DHT22;7700;48.654;9.070;2024-03-06T02:27:42;4.70;99.90
15199;DHT22;7700;48.654;9.070;2024-03-06T02:30:09;4.70;99.90
15199;DHT22;7700;48.654;9.070;2024-03-06T02:32:36;4.70;99.90
15199;DHT22;7700;48.654;9.070;2024-03-06T02:35:02;4.70;99.90
15199;DHT22;7700;48.654;9.070;2024-03-06T02:37:28;4.70;99.90
15199;DHT22;7700;48.654;9.070;2024-03-06T02:39:54;4.70;99.90
15199;DHT22;7700;48.654;9.070;2024-03-06T02:42:19;4.80;99.90
15199;DHT22;7700;48.654;9.070;2024-03-06T02:44:45;4.90;99.90
15199;DHT22;7700;48.654;9.070;2024-03-06T02:47:11;5.00;99.90
15199;DHT22;7700;48.654;9.070;2024-03-06T02:49:36;5.10;99.90
15199;DHT22;7700;48.654;9.070;2024-03-06T02:52:02;5.10;99.90
15199;DHT22;7700;48.654;9.070;2024-03-06T02:54:28;5.10;99.90
15199;DHT22;7700;48.654;9.070;2024-03-06T02:56:53;5.10;99.90
15199;DHT22;7700;48.654;9.070;2024-03-06T02:59:19;5.10;99.90
15199;DHT22;7700;48.654;9.070;2024-03-06T03:01:45;5.10;99.90
15199;DHT22;7700;48.654;9.070;2024-03-06T03:04:11;5.00;99.90
15199;DHT22;7700;48.654;9.070;2024-03-06T03:06:36;5.00;99.90
15199;DHT22;7700;48.654;9.070;2024-03-06T03:09:02;5.00;99.90
15199;DHT22;7700;48.654;9.070;2024-03-06T03:11:30;4.90;99.90
15199;DHT22;7700;48.654;9.070;2024-03-06T03:13:57;4.90;99.90
15199;DHT22;7700;48.654;9.070;2024-03-06T03:16:23;4.90;99.90
15199;DHT22;7700;48.654;9.070;2024-03-06T03:18:48;5.00;99.90
15199;DHT22;7700;48.654;9.070;2024-03-06T03:21:14;5.00;99.90
15199;DHT22;7700;48.654;9.070;2024-03-06T03:23:40;5.10;99.90
15199;DHT22;7700;48.654;9.070;2024-03-06T03:26:07;5.10;99.90
15199;DHT22;7700;48.654;9.070;2024-03-06T03:28:32;5.30;99.90
15199;DHT22;7700;48.654;9.070;2024-03-06T03:30:58;5.40;99.90
15199;DHT22;7700;48.654;9.070;2024-03-06T03:33:24;5.40;99.90
15199;DHT22;7700;48.654;9.070;2024-03-06T03:35:50;5.50;99.90
15199;DHT22;7700;48.654;9.070;2024-03-06T03:38:15;5.60;99.90
15199;DHT22;7700;48.654;9.070;2024-03-06T03:40:42;5.60;99.90
15199;DHT22;7700;48.654;9.070;2024-03-06T03:43:08;5.60;99.90
15199;DHT22;7700;48.654;9.070;2024-03-06T03:45:34;5.60;99.90
15199;DHT22;7700;48.654;9.070;2024-03-06T03:48:01;5.60;99.90
15199;DHT22;7700;48.654;9.070;2024-03-06T03:50:30;5.60;99.90
15199;DHT22;7700;48.654;9.070;2024-03-06T03:52:57;5.70;99.90
15199;DHT22;7700;48.654;9.070;2024-03-06T03:55:24;5.70;99.90
15199;DHT22;7700;48.654;9.070;2024-03-06T03:57:50;5.60;99.90
15199;DHT22;7700;48.654;9.070;2024-03-06T04:00:16;5.70;99.90
15199;DHT22;7700;48.654;9.070;2024-03-06T04:02:42;5.70;99.90
15199;DHT22;7700;48.654;9.070;2024-03-06T04:05:08;5.70;99.90
15199;DHT22;7700;48.654;9.070;2024-03-06T04:07:35;5.70;99.90
15199;DHT22;7700;48.654;9.070;2024-03-06T04:10:01;5.70;99.90
15199;DHT22;7700;48.654;9.070;2024-03-06T04:12:26;5.60;99.90
15199;DHT22;7700;48.654;9.070;2024-03-06T04:14:52;5.60;99.90
15199;DHT22;7700;48.654;9.070;2024-03-06T04:17:17;5.70;99.90
15199;DHT22;7700;48.654;9.070;2024-03-06T04:19:43;5.70;99.90
15199;DHT22;7700;48.654;9.070;2024-03-06T04:22:08;5.60;99.90
15199;DHT22;7700;48.654;9.070;2024-03-06T04:24:34;5.60;99.90
15199;DHT22;7700;48.654;9.070;2024-03-06T04:26:59;5.60;99.90
15199;DHT22;7700;48.654;9.070;2024-03-06T04:29:25;5.70;99.90
15199;DHT22;7700;48.654;9.070;2024-03-06T04:31:50;5.70;99.90
15199;DHT22;7700;48.654;9.070;2024-03-06T04:34:16;5.70;99.90
15199;DHT22;7700;48.654;9.070;2024-03-06T04:36:41;5.70;99.90
15199;DHT22;7700;48.654;9.070;2024-03-06T04:39:07;5.70;99.90
15199;DHT22;7700;48.654;9.070;2024-03-06T04:41:33;5.60;99.90
15199;DHT22;7700;48.654;9.070;2024-03-06T04:43:59;5.60;99.90
15199;DHT22;7700;48.654;9.070;2024-03-06T04:46:26;5.60;99.90
15199;DHT22;7700;48.654;9.070;2024-03-06T04:48:52;5.70;99.90
15199;DHT22;7700;48.654;9.070;2024-03-06T04:51:17;5.70;99.90
15199;DHT22;7700;48.654;9.070;2024-03-06T04:53:46;5.70;99.90
15199;DHT22;7700;48.654;9.070;2024-03-06T04:56:11;5.80;99.90
15199;DHT22;7700;48.654;9.070;2024-03-06T04:58:38;5.80;99.90
15199;DHT22;7700;48.654;9.070;2024-03-06T05:01:03;5.90;99.90
15199;DHT22;7700;48.654;9.070;2024-03-06T05:03:29;5.80;99.90
15199;DHT22;7700;48.654;9.070;2024-03-06T05:05:55;5.80;99.90
15199;DHT22;7700;48.654;9.070;2024-03-06T05:08:20;5.80;99.90
15199;DHT22;7700;48.654;9.070;2024-03-06T05:10:46;5.80;99.90
15199;DHT22;7700;48.654;9.070;2024-03-06T05:13:11;5.80;99.90
15199;DHT22;7700;48.654;9.070;2024-03-06T05:15:37;5.80;99.90
15199;DHT22;7700;48.654;9.070;2024-03-06T05:18:04;5.80;99.90
15199;DHT22;7700;48.654;9.070;2024-03-06T05:20:30;5.80;99.90
15199;DHT22;7700;48.654;9.070;2024-03-06T05:22:58;5.80;99.90
15199;DHT22;7700;48.654;9.070;2024-03-06T05:25:24;5.80;99.90
15199;DHT22;7700;48.654;9.070;2024-03-06T05:27:50;5.80;99.90
15199;DHT22;7700;48.654;9.070;2024-03-06T05:30:15;5.80;99.90
15199;DHT22;7700;48.654;9.070;2024-03-06T05:32:41;5.90;99.90
15199;DHT22;7700;48.654;9.070;2024-03-06T05:35:07;5.90;99.90
15199;DHT22;7700;48.654;9.070;2024-03-06T05:37:35;5.90;99.90
15199;DHT22;7700;48.654;9.070;2024-03-06T05:40:01;5.90;99.90
15199;DHT22;7700;48.654;9.070;2024-03-06T05:42:30;5.90;99.90
15199;DHT22;7700;48.654;9.070;2024-03-06T05:44:56;5.80;99.90
15199;DHT22;7700;48.654;9.070;2024-03-06T05:47:26;5.80;99.90
15199;DHT22;7700;48.654;9.070;2024-03-06T05:49:52;5.70;99.90
15199;DHT22;7700;48.654;9.070;2024-03-06T05:52:18;5.70;99.90
15199;DHT22;7700;48.654;9.070;2024-03-06T05:54:43;5.70;99.90
15199;DHT22;7700;48.654;9.070;2024-03-06T05:57:09;5.60;99.90
15199;DHT22;7700;48.654;9.070;2024-03-06T05:59:34;5.70;99.90
15199;DHT22;7700;48.654;9.070;2024-03-06T06:02:00;5.70;99.90
15199;DHT22;7700;48.654;9.070;2024-03-06T06:04:25;5.70;99.90
15199;DHT22;7700;48.654;9.070;2024-03-06T06:06:51;5.70;99.90
15199;DHT22;7700;48.654;9.070;2024-03-06T06:09:17;5.80;99.90
15199;DHT22;7700;48.654;9.070;2024-03-06T06:11:44;5.80;99.90
15199;DHT22;7700;48.654;9.070;2024-03-06T06:14:09;5.70;99.90
15199;DHT22;7700;48.654;9.070;2024-03-06T06:16:39;5.70;99.90
15199;DHT22;7700;48.654;9.070;2024-03-06T06:19:06;5.70;99.90
15199;DHT22;7700;48.654;9.070;2024-03-06T06:21:32;5.80;99.90
15199;DHT22;7700;48.654;9.070;2024-03-06T06:23:58;5.80;99.90
15199;DHT22;7700;48.654;9.070;2024-03-06T06:26:23;5.80;99.90
15199;DHT22;7700;48.654;9.070;2024-03-06T06:28:49;5.80;99.90
15199;DHT22;7700;48.654;9.070;2024-03-06T06:31:15;5.80;99.90
15199;DHT22;7700;48.654;9.070;2024-03-06T06:33:40;5.80;99.90
15199;DHT22;7700;48.654;9.070;2024-03-06T06:36:06;5.80;99.90
15199;DHT22;7700;48.654;9.070;2024-03-06T06:38:32;5.80;99.90
15199;DHT22;7700;48.654;9.070;2024-03-06T06:40:57;5.80;99.90
15199;DHT22;7700;48.654;9.070;2024-03-06T06:43:23;5.80;99.90
15199;DHT22;7700;48.654;9.070;2024-03-06T06:45:48;5.80;99.90
15199;DHT22;7700;48.654;9.070;2024-03-06T06:48:14;5.80;99.90
15199;DHT22;7700;48.654;9.070;2024-03-06T06:50:39;5.80;99.90
15199;DHT22;7700;48.654;9.070;2024-03-06T06:53:05;5.90;99.90
15199;DHT22;7700;48.654;9.070;2024-03-06T06:55:31;5.90;99.90
15199;DHT22;7700;48.654;9.070;2024-03-06T06:57:56;5.90;99.90
15199;DHT22;7700;48.654;9.070;2024-03-06T07:00:22;5.90;99.90
15199;DHT22;7700;48.654;9.070;2024-03-06T07:02:48;6.00;99.90
15199;DHT22;7700;48.654;9.070;2024-03-06T07:05:14;6.00;99.90
15199;DHT22;7700;48.654;9.070;2024-03-06T07:07:40;6.00;99.90
15199;DHT22;7700;48.654;9.070;2024-03-06T07:10:06;6.00;99.90
15199;DHT22;7700;48.654;9.070;2024-03-06T07:12:32;6.10;99.90
15199;DHT22;7700;48.654;9.070;2024-03-06T07:14:58;6.10;99.90
15199;DHT22;7700;48.654;9.070;2024-03-06T07:17:23;6.10;99.90
15199;DHT22;7700;48.654;9.070;2024-03-06T07:19:49;6.10;99.90
15199;DHT22;7700;48.654;9.070;2024-03-06T07:22:15;6.10;99.90
15199;DHT22;7700;48.654;9.070;2024-03-06T07:24:42;6.20;99.90
15199;DHT22;7700;48.654;9.070;2024-03-06T07:27:08;6.10;99.90
15199;DHT22;7700;48.654;9.070;2024-03-06T07:29:36;6.10;99.90
15199;DHT22;7700;48.654;9.070;2024-03-06T07:32:02;6.10;99.90
15199;DHT22;7700;48.654;9.070;2024-03-06T07:34:28;6.20;99.90
15199;DHT22;7700;48.654;9.070;2024-03-06T07:36:53;6.30;99.90
15199;DHT22;7700;48.654;9.070;2024-03-06T07:39:19;6.30;99.90
15199;DHT22;7700;48.654;9.070;2024-03-06T07:41:45;6.30;99.90
15199;DHT22;7700;48.654;9.070;2024-03-06T07:44:11;6.20;99.90
15199;DHT22;7700;48.654;9.070;2024-03-06T07:46:36;6.30;99.90
15199;DHT22;7700;48.654;9.070;2024-03-06T07:49:02;6.20;99.90
15199;DHT22;7700;48.654;9.070;2024-03-06T07:51:34;6.20;99.90
15199;DHT22;7700;48.654;9.070;2024-03-06T07:54:01;6.10;99.90
15199;DHT22;7700;48.654;9.070;2024-03-06T07:56:27;6.10;99.90
15199;DHT22;7700;48.654;9.070;2024-03-06T07:58:53;6.20;99.90
15199;DHT22;7700;48.654;9.070;2024-03-06T08:01:20;6.10;99.90
15199;DHT22;7700;48.654;9.070;2024-03-06T08:03:46;6.20;99.90
15199;DHT22;7700;48.654;9.070;2024-03-06T08:06:12;6.20;99.90
15199;DHT22;7700;48.654;9.070;2024-03-06T08:08:41;6.20;99.90
15199;DHT22;7700;48.654;9.070;2024-03-06T08:11:07;6.30;99.90
15199;DHT22;7700;48.654;9.070;2024-03-06T08:13:32;6.30;99.90
15199;DHT22;7700;48.654;9.070;2024-03-06T08:15:58;6.40;99.90
15199;DHT22;7700;48.654;9.070;2024-03-06T08:18:23;6.40;99.90
15199;DHT22;7700;48.654;9.070;2024-03-06T08:20:49;6.40;99.90
15199;DHT22;7700;48.654;9.070;2024-03-06T08:23:14;6.40;99.90
15199;DHT22;7700;48.654;9.070;2024-03-06T08:25:40;6.40;99.90
15199;DHT22;7700;48.654;9.070;2024-03-06T08:28:06;6.40;99.90
15199;DHT22;7700;48.654;9.070;2024-03-06T08:30:32;6.40;99.90
15199;DHT22;7700;48.654;9.070;2024-03-06T08:32:58;6.40;99.90
15199;DHT22;7700;48.654;9.070;2024-03-06T08:35:23;6.40;99.90
15199;DHT22;7700;48.654;9.070;2024-03-06T08:37:50;6.50;99.90
15199;DHT22;7700;48.654;9.070;2024-03-06T08:40:16;6.60;99.90
15199;DHT22;7700;48.654;9.070;2024-03-06T08:42:46;6.60;99.90
15199;DHT22;7700;48.654;9.070;2024-03-06T08:45:18;6.70;99.90
15199;DHT22;7700;48.654;9.070;2024-03-06T08:47:45;6.80;99.90
15199;DHT22;7700;48.654;9.070;2024-03-06T08:50:11;6.80;99.90
15199;DHT22;7700;48.654;9.070;2024-03-06T08:52:38;6.90;99.90
15199;DHT22;7700;48.654;9.070;2024-03-06T08:55:04;6.80;99.90
15199;DHT22;7700;48.654;9.070;2024-03-06T08:57:29;6.90;99.90
15199;DHT22;7700;48.654;9.070;2024-03-06T08:59:56;6.90;99.90
15199;DHT22;7700;48.654;9.070;2024-03-06T09:02:22;7.00;99.90
15199;DHT22;7700;48.654;9.070;2024-03-06T09:04:48;7.00;99.90
15199;DHT22;7700;48.654;9.070;2024-03-06T09:07:14;7.00;99.90
15199;DHT22;7700;48.654;9.070;2024-03-06T09:09:40;7.00;99.90
15199;DHT22;7700;48.654;9.070;2024-03-06T09:12:07;7.00;99.90
15199;DHT22;7700;48.654;9.070;2024-03-06T09:14:36;7.00;99.90
15199;DHT22;7700;48.654;9.070;2024-03-06T09:17:02;7.00;99.90
15199;DHT22;7700;48.654;9.070;2024-03-06T09:19:28;7.00;99.90
15199;DHT22;7700;48.654;9.070;2024-03-06T09:21:54;6.90;99.90
15199;DHT22;7700;48.654;9.070;2024-03-06T09:24:23;7.00;99.90
15199;DHT22;7700;48.654;9.070;2024-03-06T09:26:50;6.90;99.90
15199;DHT22;7700;48.654;9.070;2024-03-06T09:29:16;6.90;99.90
15199;DHT22;7700;48.654;9.070;2024-03-06T09:31:42;6.90;99.90
15199;DHT22;7700;48.654;9.070;2024-03-06T09:34:08;6.80;99.90
15199;DHT22;7700;48.654;9.070;2024-03-06T09:36:36;6.80;99.90
15199;DHT22;7700;48.654;9.070;2024-03-06T09:39:02;6.80;99.90
15199;DHT22;7700;48.654;9.070;2024-03-06T09:41:30;6.70;99.90
15199;DHT22;7700;48.654;9.070;2024-03-06T09:43:56;6.80;99.90
15199;DHT22;7700;48.654;9.070;2024-03-06T09:46:21;6.70;99.90
15199;DHT22;7700;48.654;9.070;2024-03-06T09:48:48;6.70;99.90
15199;DHT22;7700;48.654;9.070;2024-03-06T09:51:14;6.70;99.90
15199;DHT22;7700;48.654;9.070;2024-03-06T09:53:41;6.80;99.90
15199;DHT22;7700;48.654;9.070;2024-03-06T09:56:09;6.80;99.90
15199;DHT22;7700;48.654;9.070;2024-03-06T09:58:37;6.80;99.90
15199;DHT22;7700;48.654;9.070;2024-03-06T10:03:30;6.80;99.90
15199;DHT22;7700;48.654;9.070;2024-03-06T10:05:56;6.90;99.90
15199;DHT22;7700;48.654;9.070;2024-03-06T10:08:22;6.90;99.90
15199;DHT22;7700;48.654;9.070;2024-03-06T10:10:49;7.00;99.90
15199;DHT22;7700;48.654;9.070;2024-03-06T10:13:16;7.00;99.90
15199;DHT22;7700;48.654;9.070;2024-03-06T10:15:59;7.00;99.90
15199;DHT22;7700;48.654;9.070;2024-03-06T10:18:30;7.00;99.90
15199;DHT22;7700;48.654;9.070;2024-03-06T10:20:56;7.00;99.90
15199;DHT22;7700;48.654;9.070;2024-03-06T10:23:22;7.00;99.90
15199;DHT22;7700;48.654;9.070;2024-03-06T10:25:48;6.90;99.90
15199;DHT22;7700;48.654;9.070;2024-03-06T10:28:21;7.00;99.90
15199;DHT22;7700;48.654;9.070;2024-03-06T10:30:51;6.90;99.90
15199;DHT22;7700;48.654;9.070;2024-03-06T10:33:18;6.90;99.90
15199;DHT22;7700;48.654;9.070;2024-03-06T10:35:45;6.80;99.90
15199;DHT22;7700;48.654;9.070;2024-03-06T10:38:12;6.80;99.90
15199;DHT22;7700;48.654;9.070;2024-03-06T10:40:39;7.00;99.90
15199;DHT22;7700;48.654;9.070;2024-03-06T10:43:06;7.00;99.90
15199;DHT22;7700;48.654;9.070;2024-03-06T10:45:39;7.10;99.90
15199;DHT22;7700;48.654;9.070;2024-03-06T10:48:07;7.10;99.90
15199;DHT22;7700;48.654;9.070;2024-03-06T10:50:33;7.20;99.90
15199;DHT22;7700;48.654;9.070;2024-03-06T10:53:01;7.20;99.90
15199;DHT22;7700;48.654;9.070;2024-03-06T10:55:28;7.20;99.90
15199;DHT22;7700;48.654;9.070;2024-03-06T10:57:56;7.20;99.90
15199;DHT22;7700;48.654;9.070;2024-03-06T11:00:23;7.30;99.90
15199;DHT22;7700;48.654;9.070;2024-03-06T11:02:49;7.40;99.90
15199;DHT22;7700;48.654;9.070;2024-03-06T11:05:16;7.40;99.90
15199;DHT22;7700;48.654;9.070;2024-03-06T11:07:42;7.40;99.90
15199;DHT22;7700;48.654;9.070;2024-03-06T11:10:09;7.30;99.90
15199;DHT22;7700;48.654;9.070;2024-03-06T11:12:42;7.40;99.90
15199;DHT22;7700;48.654;9.070;2024-03-06T11:15:13;7.40;99.90
15199;DHT22;7700;48.654;9.070;2024-03-06T11:17:39;7.40;99.90
15199;DHT22;7700;48.654;9.070;2024-03-06T11:28:10;7.50;99.90
15199;DHT22;7700;48.654;9.070;2024-03-06T11:30:45;7.50;99.90
15199;DHT22;7700;48.654;9.070;2024-03-06T11:33:15;7.50;99.90
15199;DHT22;7700;48.654;9.070;2024-03-06T11:35:42;7.40;99.90
15199;DHT22;7700;48.654;9.070;2024-03-06T11:38:10;7.40;99.90
15199;DHT22;7700;48.654;9.070;2024-03-06T11:40:43;7.30;99.90
15199;DHT22;7700;48.654;9.070;2024-03-06T11:43:23;7.30;99.90
15199;DHT22;7700;48.654;9.070;2024-03-06T11:45:49;7.20;99.90
15199;DHT22;7700;48.654;9.070;2024-03-06T11:48:15;7.20;99.90
15199;DHT22;7700;48.654;9.070;2024-03-06T11:50:44;7.20;99.90
15199;DHT22;7700;48.654;9.070;2024-03-06T11:53:10;7.20;99.90
15199;DHT22;7700;48.654;9.070;2024-03-06T11:55:36;7.20;99.90
15199;DHT22;7700;48.654;9.070;2024-03-06T11:58:02;7.10;99.90
15199;DHT22;7700;48.654;9.070;2024-03-06T12:00:30;7.10;99.90
15199;DHT22;7700;48.654;9.070;2024-03-06T12:02:55;7.10;99.90
15199;DHT22;7700;48.654;9.070;2024-03-06T12:05:22;7.10;99.90
15199;DHT22;7700;48.654;9.070;2024-03-06T12:07:49;7.10;99.90
15199;DHT22;7700;48.654;9.070;2024-03-06T12:10:16;7.10;99.90
15199;DHT22;7700;48.654;9.070;2024-03-06T12:12:43;7.10;99.90
15199;DHT22;7700;48.654;9.070;2024-03-06T12:15:13;7.10;99.90
15199;DHT22;7700;48.654;9.070;2024-03-06T12:17:48;7.10;99.90
15199;DHT22;7700;48.654;9.070;2024-03-06T12:20:17;7.20;99.90
15199;DHT22;7700;48.654;9.070;2024-03-06T12:22:51;7.10;99.90
15199;DHT22;7700;48.654;9.070;2024-03-06T12:25:23;7.20;99.90
15199;DHT22;7700;48.654;9.070;2024-03-06T12:27:50;7.10;99.90
15199;DHT22;7700;48.654;9.070;2024-03-06T12:30:22;7.10;99.90
15199;DHT22;7700;48.654;9.070;2024-03-06T12:35:26;7.00;99.90
15199;DHT22;7700;48.654;9.070;2024-03-06T12:37:52;7.00;99.90
15199;DHT22;7700;48.654;9.070;2024-03-06T12:40:19;7.00;99.90
15199;DHT22;7700;48.654;9.070;2024-03-06T12:42:44;7.00;99.90
15199;DHT22;7700;48.654;9.070;2024-03-06T12:45:12;6.90;99.90
15199;DHT22;7700;48.654;9.070;2024-03-06T12:47:41;7.00;99.90
15199;DHT22;7700;48.654;9.070;2024-03-06T12:50:07;7.10;99.90
15199;DHT22;7700;48.654;9.070;2024-03-06T12:52:34;7.10;99.90
15199;DHT22;7700;48.654;9.070;2024-03-06T12:55:00;7.10;99.90
15199;DHT22;7700;48.654;9.070;2024-03-06T12:57:26;7.10;99.90
15199;DHT22;7700;48.654;9.070;2024-03-06T12:59:53;7.20;99.90
15199;DHT22;7700;48.654;9.070;2024-03-06T13:02:18;7.20;99.90
15199;DHT22;7700;48.654;9.070;2024-03-06T13:04:44;7.20;99.90
15199;DHT22;7700;48.654;9.070;2024-03-06T13:07:10;7.20;99.90
15199;DHT22;7700;48.654;9.070;2024-03-06T13:09:36;7.20;99.90
15199;DHT22;7700;48.654;9.070;2024-03-06T13:12:02;7.10;99.90
15199;DHT22;7700;48.654;9.070;2024-03-06T13:14:27;7.10;99.90
15199;DHT22;7700;48.654;9.070;2024-03-06T13:16:53;7.10;99.90
15199;DHT22;7700;48.654;9.070;2024-03-06T13:19:18;7.10;99.90
15199;DHT22;7700;48.654;9.070;2024-03-06T13:21:44;7.20;99.90
15199;DHT22;7700;48.654;9.070;2024-03-06T13:24:10;7.10;99.90
15199;DHT22;7700;48.654;9.070;2024-03-06T13:26:35;7.10;99.90
15199;DHT22;7700;48.654;9.070;2024-03-06T13:29:03;7.10;99.90
15199;DHT22;7700;48.654;9.070;2024-03-06T13:31:28;7.10;99.90
15199;DHT22;7700;48.654;9.070;2024-03-06T13:33:55;7.20;99.90
15199;DHT22;7700;48.654;9.070;2024-03-06T13:36:21;7.10;99.90
15199;DHT22;7700;48.654;9.070;2024-03-06T13:38:47;7.20;99.90
15199;DHT22;7700;48.654;9.070;2024-03-06T13:41:13;7.20;99.90
15199;DHT22;7700;48.654;9.070;2024-03-06T13:43:38;7.20;99.90
15199;DHT22;7700;48.654;9.070;2024-03-06T13:46:04;7.20;99.90
15199;DHT22;7700;48.654;9.070;2024-03-06T13:48:29;7.30;99.90
15199;DHT22;7700;48.654;9.070;2024-03-06T13:50:55;7.30;99.90
15199;DHT22;7700;48.654;9.070;2024-03-06T13:53:21;7.20;99.90
15199;DHT22;7700;48.654;9.070;2024-03-06T13:55:46;7.30;99.90
15199;DHT22;7700;48.654;9.070;2024-03-06T13:58:12;7.20;99.90
15199;DHT22;7700;48.654;9.070;2024-03-06T14:00:37;7.30;99.90
15199;DHT22;7700;48.654;9.070;2024-03-06T14:03:03;7.30;99.90
15199;DHT22;7700;48.654;9.070;2024-03-06T14:05:29;7.30;99.90
15199;DHT22;7700;48.654;9.070;2024-03-06T14:07:55;7.30;99.90
15199;DHT22;7700;48.654;9.070;2024-03-06T14:10:21;7.30;99.90
15199;DHT22;7700;48.654;9.070;2024-03-06T14:12:48;7.40;99.90
15199;DHT22;7700;48.654;9.070;2024-03-06T14:15:17;7.40;99.90
15199;DHT22;7700;48.654;9.070;2024-03-06T14:17:44;7.40;99.90
15199;DHT22;7700;48.654;9.070;2024-03-06T14:20:10;7.30;99.90
15199;DHT22;7700;48.654;9.070;2024-03-06T14:22:37;7.40;99.90
15199;DHT22;7700;48.654;9.070;2024-03-06T14:25:04;7.40;99.90
15199;DHT22;7700;48.654;9.070;2024-03-06T14:27:30;7.30;99.90
15199;DHT22;7700;48.654;9.070;2024-03-06T14:29:55;7.30;99.90
15199;DHT22;7700;48.654;9.070;2024-03-06T14:32:21;7.30;99.90
15199;DHT22;7700;48.654;9.070;2024-03-06T14:34:47;7.30;99.90
15199;DHT22;7700;48.654;9.070;2024-03-06T14:37:12;7.30;99.90
15199;DHT22;7700;48.654;9.070;2024-03-06T14:39:38;7.20;99.90
15199;DHT22;7700;48.654;9.070;2024-03-06T14:42:04;7.20;99.90
15199;DHT22;7700;48.654;9.070;2024-03-06T14:44:30;7.10;99.90
15199;DHT22;7700;48.654;9.070;2024-03-06T14:46:56;7.20;99.90
15199;DHT22;7700;48.654;9.070;2024-03-06T14:49:22;7.10;99.90
15199;DHT22;7700;48.654;9.070;2024-03-06T14:51:47;7.10;99.90
15199;DHT22;7700;48.654;9.070;2024-03-06T14:54:13;7.10;99.90
15199;DHT22;7700;48.654;9.070;2024-03-06T14:56:39;7.10;99.90
15199;DHT22;7700;48.654;9.070;2024-03-06T14:59:05;7.00;99.90
15199;DHT22;7700;48.654;9.070;2024-03-06T15:01:31;7.00;99.90
15199;DHT22;7700;48.654;9.070;2024-03-06T15:03:57;7.00;99.90
15199;DHT22;7700;48.654;9.070;2024-03-06T15:06:23;7.10;99.90
15199;DHT22;7700;48.654;9.070;2024-03-06T15:08:49;7.00;99.90
15199;DHT22;7700;48.654;9.070;2024-03-06T15:11:14;7.00;99.90
15199;DHT22;7700;48.654;9.070;2024-03-06T15:13:40;7.00;99.90
15199;DHT22;7700;48.654;9.070;2024-03-06T15:16:06;7.10;99.90
15199;DHT22;7700;48.654;9.070;2024-03-06T15:18:33;7.10;99.90
15199;DHT22;7700;48.654;9.070;2024-03-06T15:20:59;7.10;99.90
15199;DHT22;7700;48.654;9.070;2024-03-06T15:23:24;7.10;99.90
15199;DHT22;7700;48.654;9.070;2024-03-06T15:25:50;7.10;99.90
15199;DHT22;7700;48.654;9.070;2024-03-06T15:28:16;7.10;99.90
15199;DHT22;7700;48.654;9.070;2024-03-06T15:30:41;7.30;99.90
15199;DHT22;7700;48.654;9.070;2024-03-06T15:33:07;7.70;99.90
15199;DHT22;7700;48.654;9.070;2024-03-06T15:35:33;7.70;99.90
15199;DHT22;7700;48.654;9.070;2024-03-06T15:37:59;7.60;99.90
15199;DHT22;7700;48.654;9.070;2024-03-06T15:40:25;7.50;99.90
15199;DHT22;7700;48.654;9.070;2024-03-06T15:42:52;7.40;99.90
15199;DHT22;7700;48.654;9.070;2024-03-06T15:45:17;7.40;99.90
15199;DHT22;7700;48.654;9.070;2024-03-06T15:47:43;7.40;99.90
15199;DHT22;7700;48.654;9.070;2024-03-06T15:50:11;7.40;99.90
15199;DHT22;7700;48.654;9.070;2024-03-06T15:52:38;7.40;99.90
15199;DHT22;7700;48.654;9.070;2024-03-06T15:55:07;7.40;99.90
15199;DHT22;7700;48.654;9.070;2024-03-06T15:57:34;7.30;99.90
15199;DHT22;7700;48.654;9.070;2024-03-06T16:00:01;7.30;99.90
15199;DHT22;7700;48.654;9.070;2024-03-06T16:02:26;7.30;99.90
15199;DHT22;7700;48.654;9.070;2024-03-06T16:04:52;7.20;99.90
15199;DHT22;7700;48.654;9.070;2024-03-06T16:07:17;7.20;99.90
15199;DHT22;7700;48.654;9.070;2024-03-06T16:09:43;7.10;99.90